Airfield :
LOGIN :

Register | Disclaimer

   EN    FR    IT 

 










Legend :    VFR   Marginal VFR   IFR   Intensive IFR   Very Intensive IFR
Visi :
Ceiling :
>= 8 km
>= 3000ft
5 to 8 km
1000 to 3000 ft
1500m to 5 km
500 to 1000 ft
800 to 1500m
200 to 500 ft
< 800m
< 200 ft
Symbols :   Thunderstorms  Fog  Heavy snow  Heavy precipitations  Wind > 20 kt
SIGMETs :     Misc.  Thunderstorms  Icing  Turbulence  Mountain Waves  Volcanic Ashes






- Airport Elevation : 82 ft
- IATA code : QIE


LFMI - Istres

CURRENT METAR :
  • 190830Z AUTO 17005KT 130V210 CAVOK 27/19 Q1016 NOSIG

EXPIRED METARs :
  • 190800Z AUTO 20007KT 140V230 9999 FEW034 27/19 Q1016 NOSIG
  • 190730Z AUTO 20005KT 150V240 CAVOK 27/18 Q1016 NOSIG
  • 190700Z AUTO VRB02KT CAVOK 26/16 Q1016 NOSIG
  • 190630Z AUTO VRB02KT CAVOK 25/16 Q1016 NOSIG

TAF TAF LFMI
Valid from the 19 at 09:00 until the 20 at 09:00 UTC


190800Z 1909/2009 16010KT CAVOK TX31/1912Z TN22/2003Z
TEMPO 1914/1920 16015G30KT
BECMG 1920/1922 10010KT
BECMG 2002/2004 02006KT
PROB40
TEMPO 2002/2009 VRB15KT 4000 SHRA FEW070TCU
BECMG 2005/2007 18012KT
TEMPO 2007/2009 16020G30KT



MET'MAP, your aeronautical weather chart ! - Copyright ORBIFLY December 2007 - Disclaimer

ORBIFLY MET'MAP TEAM :

Programming & Development : Alexandra Zaïnal
Concept & original design : Baudouin d'Aumeries
Assistance for programming : Marc-Olivier Méhu
Technical & hardware support : Manuel Goepfert

Contact : metmap@orbifly.com




SOURCES & CREDITS :

   NOAA